Time;durP1;ratioP1;P1;durP2;ratioP2;P2;SDS_P1;SDS_P2;PMS_P1;PMS_P2;Temp;Humidity;BMP_temperature;BMP_pressure;BME280_temperature;BME280_humidity;BME280_pressure;Samples;Min_cycle;Max_cycle;Signal;HPM_P1;HPM_P2
2022/12/20 00:01:32;;;;;;;15.70;10.10;;;6.50;1.00;;;;;;5076446;28;20164;-70
2022/12/20 00:04:04;;;;;;;13.93;10.73;;;6.60;1.00;;;;;;5058184;28;20190;-71
2022/12/20 00:06:30;;;;;;;15.07;10.10;;;6.60;1.00;;;;;;5057569;28;20434;-70
2022/12/20 00:08:59;;;;;;;13.50;10.10;;;6.60;1.00;;;;;;5058276;28;20440;-70
2022/12/20 00:11:25;;;;;;;14.97;10.77;;;6.60;99.90;;;;;;5076064;28;20820;-70
2022/12/20 00:13:52;;;;;;;17.33;10.70;;;6.60;99.90;;;;;;5075996;28;20956;-73
2022/12/20 00:16:23;;;;;;;15.57;11.67;;;6.60;99.90;;;;;;5075319;28;20423;-71
2022/12/20 00:18:58;;;;;;;21.40;11.63;;;6.60;99.90;;;;;;5075865;28;20818;-73
2022/12/20 00:21:24;;;;;;;17.00;9.37;;;6.70;99.90;;;;;;5075921;28;20400;-72
2022/12/20 00:23:51;;;;;;;13.07;10.17;;;6.70;99.90;;;;;;5075685;28;20431;-72
2022/12/20 00:26:20;;;;;;;14.07;10.03;;;6.70;99.90;;;;;;5075076;28;20413;-73
2022/12/20 00:28:46;;;;;;;13.77;11.30;;;6.70;99.90;;;;;;5057141;28;20478;-73
2022/12/20 00:31:13;;;;;;;16.40;11.73;;;6.70;99.90;;;;;;5075882;28;20460;-75
2022/12/20 00:33:40;;;;;;;18.93;11.40;;;6.80;99.90;;;;;;5057871;28;20424;-74
2022/12/20 00:36:06;;;;;;;13.40;10.80;;;6.80;99.90;;;;;;5074882;28;20496;-72
2022/12/20 00:38:33;;;;;;;12.17;10.03;;;6.70;99.90;;;;;;5075443;28;20425;-73
2022/12/20 00:41:07;;;;;;;11.83;9.13;;;6.80;99.90;;;;;;5075656;28;20440;-73
2022/12/20 00:43:33;;;;;;;14.70;10.07;;;6.80;99.90;;;;;;5075600;28;20405;-73
2022/12/20 00:46:00;;;;;;;10.93;9.70;;;6.80;99.90;;;;;;5074654;28;20511;-71
2022/12/20 00:48:26;;;;;;;13.90;11.13;;;6.80;99.90;;;;;;5057322;28;20758;-74
2022/12/20 00:50:56;;;;;;;13.30;10.23;;;6.80;99.90;;;;;;5057046;28;20498;-72
2022/12/20 00:53:22;;;;;;;16.73;12.07;;;6.80;99.90;;;;;;5075336;28;20400;-71
2022/12/20 00:55:48;;;;;;;21.73;9.50;;;6.80;99.90;;;;;;5056615;28;20788;-73
2022/12/20 00:58:13;;;;;;;21.40;11.87;;;6.80;99.90;;;;;;5075347;28;20173;-73
2022/12/20 01:00:40;;;;;;;24.27;11.70;;;6.80;99.90;;;;;;5057271;28;20546;-73
2022/12/20 01:03:06;;;;;;;14.07;10.77;;;6.90;99.90;;;;;;5074891;28;20236;-73
2022/12/20 01:05:32;;;;;;;16.60;9.87;;;6.90;99.90;;;;;;5056121;28;20482;-71
2022/12/20 01:07:57;;;;;;;13.90;10.07;;;6.90;99.90;;;;;;5057328;28;20417;-73
2022/12/20 01:10:23;;;;;;;14.97;9.43;;;6.90;99.90;;;;;;5074855;28;20621;-72
2022/12/20 01:12:49;;;;;;;11.40;9.40;;;7.00;99.90;;;;;;5074809;28;20185;-70
2022/12/20 01:15:15;;;;;;;13.50;10.10;;;7.00;99.90;;;;;;5074113;28;20196;-71
2022/12/20 01:17:41;;;;;;;13.57;8.80;;;7.00;99.90;;;;;;5074801;28;20512;-74
2022/12/20 01:20:07;;;;;;;16.67;10.57;;;7.00;99.90;;;;;;5074529;28;20166;-73
2022/12/20 01:22:33;;;;;;;15.23;9.97;;;7.00;99.90;;;;;;5074792;28;20171;-72
2022/12/20 01:24:59;;;;;;;12.90;10.77;;;7.10;99.90;;;;;;5073849;28;20990;-73
2022/12/20 01:27:25;;;;;;;11.97;9.20;;;7.00;99.90;;;;;;5074487;28;20412;-74
2022/12/20 01:29:51;;;;;;;14.57;11.20;;;7.00;99.90;;;;;;5074565;28;20213;-73
2022/12/20 01:32:16;;;;;;;15.10;11.07;;;7.10;99.90;;;;;;5056509;28;20405;-74
2022/12/20 01:34:43;;;;;;;11.90;8.80;;;7.10;99.90;;;;;;5055694;28;20420;-74
2022/12/20 01:37:09;;;;;;;12.80;10.50;;;7.10;99.90;;;;;;5074300;28;20174;-73
2022/12/20 01:39:34;;;;;;;13.20;9.80;;;7.10;99.90;;;;;;5073433;28;20496;-73
2022/12/20 01:42:00;;;;;;;15.00;10.57;;;7.10;99.90;;;;;;5074507;28;20205;-71
2022/12/20 01:44:26;;;;;;;12.27;9.60;;;7.10;99.90;;;;;;5073593;28;20190;-74
2022/12/20 01:46:52;;;;;;;10.67;9.07;;;7.20;99.90;;;;;;5074090;28;20181;-72
2022/12/20 01:49:23;;;;;;;18.80;10.47;;;7.10;99.90;;;;;;5073953;28;20162;-74
2022/12/20 01:51:51;;;;;;;17.33;11.80;;;7.20;99.90;;;;;;5074244;28;20444;-73
2022/12/20 01:54:19;;;;;;;11.90;10.10;;;7.10;99.90;;;;;;5073488;28;20448;-74
2022/12/20 01:56:52;;;;;;;15.83;10.07;;;7.10;99.90;;;;;;5074196;28;20400;-72
2022/12/20 01:59:18;;;;;;;12.90;9.03;;;7.10;99.90;;;;;;5073013;28;20925;-74
2022/12/20 02:01:45;;;;;;;17.00;9.87;;;7.10;99.90;;;;;;5073953;28;20500;-73
2022/12/20 02:04:11;;;;;;;10.13;9.13;;;7.10;99.90;;;;;;5073823;28;20431;-74
2022/12/20 02:06:36;;;;;;;12.90;9.90;;;7.20;99.90;;;;;;5073383;28;20428;-74
2022/12/20 02:09:04;;;;;;;11.73;9.10;;;7.20;99.90;;;;;;5056176;28;20735;-71
2022/12/20 02:11:47;;;;;;;13.50;9.37;;;7.20;99.90;;;;;;5073677;28;20219;-73
2022/12/20 02:14:25;;;;;;;14.07;8.83;;;7.20;99.90;;;;;;5073428;28;20409;-73
2022/12/20 02:17:18;;;;;;;12.73;10.03;;;7.20;99.90;;;;;;5073735;28;20487;-72
2022/12/20 02:20:28;;;;;;;11.30;10.20;;;7.20;99.90;;;;;;5073628;28;20392;-73
2022/12/20 02:23:21;;;;;;;15.63;10.00;;;7.20;99.90;;;;;;5073627;28;20466;-72
2022/12/20 02:26:01;;;;;;;18.60;9.93;;;7.20;99.90;;;;;;5072904;28;20412;-73
2022/12/20 02:28:39;;;;;;;11.67;9.37;;;7.20;99.90;;;;;;5073558;28;20404;-73
2022/12/20 02:31:11;;;;;;;11.00;8.83;;;7.20;99.90;;;;;;5073322;28;20843;-73
2022/12/20 02:33:41;;;;;;;14.63;9.73;;;7.20;99.90;;;;;;5073374;28;20404;-71
2022/12/20 02:36:07;;;;;;;14.93;10.20;;;7.20;99.90;;;;;;5072757;28;20396;-71
2022/12/20 02:38:35;;;;;;;12.13;10.30;;;7.30;99.90;;;;;;5055632;28;20446;-70
2022/12/20 02:41:10;;;;;;;14.60;9.87;;;7.20;99.90;;;;;;5073386;28;20409;-73
2022/12/20 02:46:26;;;;;;;10.33;8.00;;;7.30;99.90;;;;;;5072941;28;20764;-73
2022/12/20 02:48:55;;;;;;;10.60;8.57;;;7.30;99.90;;;;;;5055310;28;20408;-73
2022/12/20 02:51:25;;;;;;;14.67;10.03;;;7.30;99.90;;;;;;5072912;28;20443;-71
2022/12/20 02:53:51;;;;;;;11.67;9.23;;;7.30;99.90;;;;;;5073311;28;20424;-71
2022/12/20 02:57:04;;;;;;;10.37;8.20;;;7.40;99.90;;;;;;5072689;28;20397;-71
2022/12/20 02:59:42;;;;;;;17.73;10.20;;;7.40;99.90;;;;;;5073128;28;20404;-71
2022/12/20 03:02:09;;;;;;;15.90;10.20;;;7.40;99.90;;;;;;5073302;28;20400;-71
2022/12/20 03:04:38;;;;;;;10.40;9.40;;;7.40;99.90;;;;;;5072415;28;20478;-70
2022/12/20 03:07:06;;;;;;;12.27;9.77;;;7.30;99.90;;;;;;5073189;28;20980;-74
2022/12/20 03:09:35;;;;;;;11.07;9.77;;;7.30;99.90;;;;;;5055411;28;20444;-71
2022/12/20 03:12:02;;;;;;;12.03;9.90;;;7.30;99.90;;;;;;5073169;28;20404;-74
2022/12/20 03:14:28;;;;;;;9.60;8.60;;;7.30;99.90;;;;;;5054345;28;20463;-74
2022/12/20 03:16:54;;;;;;;12.33;8.70;;;7.30;99.90;;;;;;5073030;28;20417;-74
2022/12/20 03:19:20;;;;;;;14.33;10.80;;;7.20;99.90;;;;;;5073110;28;20208;-74
2022/12/20 03:21:46;;;;;;;10.53;8.97;;;7.20;99.90;;;;;;5055113;28;20217;-74
2022/12/20 03:24:12;;;;;;;13.60;10.10;;;7.20;99.90;;;;;;5054744;28;20438;-72
2022/12/20 03:26:39;;;;;;;11.53;9.40;;;7.20;99.90;;;;;;5072564;28;20396;-71
2022/12/20 03:29:05;;;;;;;12.20;9.80;;;7.20;99.90;;;;;;5072919;28;20396;-74
2022/12/20 03:31:31;;;;;;;12.23;9.20;;;7.20;99.90;;;;;;5072784;28;20472;-71
2022/12/20 03:33:57;;;;;;;15.90;10.40;;;7.20;1.00;;;;;;5072743;28;20442;-75
2022/12/20 03:36:23;;;;;;;11.30;10.17;;;7.20;1.00;;;;;;5072091;28;20401;-71
2022/12/20 03:38:50;;;;;;;13.37;11.77;;;7.20;1.00;;;;;;5072883;28;20166;-71
2022/12/20 03:41:16;;;;;;;15.90;10.30;;;7.20;1.00;;;;;;5072852;28;20955;-71
2022/12/20 03:43:41;;;;;;;10.73;8.63;;;7.20;1.00;;;;;;5072440;28;20400;-71
2022/12/20 03:46:07;;;;;;;11.87;10.27;;;7.20;1.00;;;;;;5071998;28;20169;-75
2022/12/20 03:48:33;;;;;;;14.00;10.90;;;7.20;1.00;;;;;;5055062;28;20253;-74
2022/12/20 03:50:59;;;;;;;10.53;8.90;;;7.20;1.00;;;;;;5054850;28;20198;-71
2022/12/20 03:53:24;;;;;;;13.57;10.27;;;7.10;1.00;;;;;;5055127;28;20688;-71
2022/12/20 03:55:50;;;;;;;11.80;10.33;;;7.10;1.00;;;;;;5071905;28;20182;-72
2022/12/20 03:58:16;;;;;;;13.30;10.60;;;7.10;1.00;;;;;;5072750;28;20170;-74
2022/12/20 04:00:41;;;;;;;15.53;10.30;;;7.10;1.00;;;;;;5072730;28;20178;-70
2022/12/20 04:03:07;;;;;;;17.23;10.07;;;7.10;1.00;;;;;;5056352;28;20174;-75
2022/12/20 04:05:33;;;;;;;14.00;9.90;;;7.10;1.00;;;;;;5075495;28;20288;-74
2022/12/20 04:07:59;;;;;;;18.73;10.37;;;7.10;1.00;;;;;;5076006;28;20172;-72
2022/12/20 04:10:24;;;;;;;14.40;11.07;;;7.10;1.00;;;;;;5076050;28;20194;-70
2022/12/20 04:12:50;;;;;;;13.50;10.73;;;7.10;1.00;;;;;;5058331;28;20416;-74
2022/12/20 04:15:16;;;;;;;10.17;9.13;;;7.10;1.00;;;;;;5057065;28;20261;-71
2022/12/20 04:17:42;;;;;;;14.17;11.77;;;7.10;1.00;;;;;;5058106;28;20178;-75
2022/12/20 04:20:17;;;;;;;13.70;9.57;;;7.00;1.00;;;;;;5075697;28;20194;-70
2022/12/20 04:22:48;;;;;;;13.77;9.80;;;7.10;1.00;;;;;;5075822;28;20571;-70
2022/12/20 04:25:17;;;;;;;12.70;10.07;;;7.10;1.00;;;;;;5075097;28;20416;-74
2022/12/20 04:27:43;;;;;;;15.70;9.60;;;7.10;1.00;;;;;;5075886;28;20873;-74
2022/12/20 04:30:10;;;;;;;11.20;8.90;;;7.10;1.00;;;;;;5057815;28;20444;-74
2022/12/20 04:32:35;;;;;;;10.37;7.87;;;7.10;1.00;;;;;;5075645;28;20162;-75
2022/12/20 04:35:02;;;;;;;14.47;10.90;;;7.20;1.00;;;;;;5057244;28;20439;-75
2022/12/20 04:37:29;;;;;;;12.60;9.73;;;7.20;1.00;;;;;;5075629;28;20245;-71
2022/12/20 04:39:55;;;;;;;12.40;9.23;;;7.20;1.00;;;;;;5057631;28;20946;-75
2022/12/20 04:42:21;;;;;;;10.37;9.27;;;7.20;1.00;;;;;;5075480;28;20428;-75
2022/12/20 04:44:47;;;;;;;10.17;8.27;;;7.30;1.00;;;;;;5056957;28;20187;-75
2022/12/20 04:47:13;;;;;;;13.60;9.63;;;7.30;1.00;;;;;;5057381;28;20419;-71
2022/12/20 04:49:38;;;;;;;12.93;10.17;;;7.30;1.00;;;;;;5057387;28;20265;-75
2022/12/20 04:54:49;;;;;;;11.50;10.43;;;7.30;1.00;;;;;;5074699;28;20181;-71
2022/12/20 04:57:14;;;;;;;10.60;8.20;;;7.30;1.00;;;;;;5075454;28;20392;-75
2022/12/20 04:59:40;;;;;;;12.50;9.60;;;7.40;1.00;;;;;;5075271;28;20162;-75
2022/12/20 05:02:06;;;;;;;10.70;9.60;;;7.30;1.00;;;;;;5057236;28;20177;-74
2022/12/20 05:04:32;;;;;;;13.07;9.80;;;7.40;1.00;;;;;;5074277;28;20197;-75
2022/12/20 05:06:57;;;;;;;15.73;9.47;;;7.40;1.00;;;;;;5075040;28;20712;-75
2022/12/20 05:09:23;;;;;;;15.00;8.90;;;7.40;1.00;;;;;;5057299;28;20641;-75
2022/12/20 05:11:49;;;;;;;15.37;11.27;;;7.40;1.00;;;;;;5074901;28;20273;-75
2022/12/20 05:14:14;;;;;;;10.93;9.30;;;7.40;1.00;;;;;;5056881;28;20508;-74
2022/12/20 05:16:40;;;;;;;13.70;9.97;;;7.40;1.00;;;;;;5074407;28;20185;-72
2022/12/20 05:19:06;;;;;;;11.23;8.80;;;7.40;1.00;;;;;;5057162;28;20170;-76
2022/12/20 05:27:00;;;;;;;23.97;12.20;;;7.40;1.00;;;;;;5074608;28;20408;-70
2022/12/20 05:29:26;;;;;;;12.30;9.03;;;7.50;1.00;;;;;;5056661;28;20421;-75
2022/12/20 05:31:52;;;;;;;11.93;9.37;;;7.50;1.00;;;;;;5074432;28;20198;-73
2022/12/20 05:34:18;;;;;;;11.50;8.83;;;7.50;1.00;;;;;;5055800;28;20198;-74
2022/12/20 05:36:44;;;;;;;20.97;9.53;;;7.50;1.00;;;;;;5074319;28;20439;-75
2022/12/20 05:39:13;;;;;;;12.17;9.00;;;7.50;1.00;;;;;;5074446;28;20403;-71
2022/12/20 05:41:39;;;;;;;14.70;9.90;;;7.50;1.00;;;;;;5074349;28;20258;-71
2022/12/20 05:44:06;;;;;;;11.93;8.53;;;7.50;1.00;;;;;;5056464;28;20490;-77
2022/12/20 05:46:32;;;;;;;13.20;10.70;;;7.60;1.00;;;;;;5073623;28;20400;-72
2022/12/20 05:48:57;;;;;;;9.53;8.63;;;7.50;1.00;;;;;;5074180;28;20396;-76
2022/12/20 05:51:23;;;;;;;10.53;9.30;;;7.60;1.00;;;;;;5074079;28;20444;-71
2022/12/20 05:53:49;;;;;;;10.20;9.17;;;7.50;1.00;;;;;;5074280;28;20281;-75
2022/12/20 05:56:15;;;;;;;12.00;8.97;;;7.60;1.00;;;;;;5073574;28;20204;-71
2022/12/20 05:58:41;;;;;;;11.30;9.10;;;7.60;1.00;;;;;;5073970;28;20476;-73
2022/12/20 06:01:09;;;;;;;10.80;7.30;;;7.60;1.00;;;;;;5073921;28;20208;-75
2022/12/20 06:03:35;;;;;;;12.40;8.03;;;7.60;1.00;;;;;;5074056;28;20562;-76
2022/12/20 06:06:01;;;;;;;10.20;8.37;;;7.60;1.00;;;;;;5073326;28;20420;-76
2022/12/20 06:08:27;;;;;;;14.17;9.90;;;7.60;1.00;;;;;;5074003;28;20396;-76
2022/12/20 06:10:53;;;;;;;11.10;8.77;;;7.60;1.00;;;;;;5073699;28;20974;-75
2022/12/20 06:13:19;;;;;;;12.10;8.73;;;7.60;1.00;;;;;;5073767;28;20627;-75
2022/12/20 06:15:45;;;;;;;13.33;8.47;;;7.70;1.00;;;;;;5072924;28;20413;-75
2022/12/20 06:18:10;;;;;;;11.60;8.77;;;7.70;1.00;;;;;;5073792;28;20192;-75
2022/12/20 06:20:36;;;;;;;14.00;8.70;;;7.70;1.00;;;;;;5073752;28;20920;-70
2022/12/20 06:23:03;;;;;;;12.93;8.90;;;7.70;1.00;;;;;;5073500;28;20504;-70
2022/12/20 06:25:29;;;;;;;12.27;9.60;;;7.70;1.00;;;;;;5054354;28;20845;-77
2022/12/20 06:27:55;;;;;;;9.67;8.67;;;7.70;1.00;;;;;;5073650;28;20404;-70
2022/12/20 06:30:21;;;;;;;11.53;9.17;;;7.70;1.00;;;;;;5073519;28;20865;-76
2022/12/20 06:32:47;;;;;;;10.77;8.80;;;7.70;1.00;;;;;;5073533;28;20522;-71
2022/12/20 06:35:13;;;;;;;11.47;8.30;;;7.70;1.00;;;;;;5054984;28;20484;-76
2022/12/20 06:37:40;;;;;;;12.40;8.80;;;7.80;1.00;;;;;;5073611;28;20166;-76
2022/12/20 06:40:08;;;;;;;11.30;9.40;;;7.70;1.00;;;;;;5073413;28;20409;-71
2022/12/20 06:42:34;;;;;;;9.83;8.80;;;7.70;1.00;;;;;;5073416;28;20396;-76
2022/12/20 06:44:59;;;;;;;9.60;8.10;;;7.70;1.00;;;;;;5054705;28;20436;-76
2022/12/20 06:47:25;;;;;;;10.90;8.20;;;7.70;1.00;;;;;;5055573;28;20217;-70
2022/12/20 06:49:51;;;;;;;8.20;7.13;;;7.80;1.00;;;;;;5073177;28;20178;-77
2022/12/20 06:52:16;;;;;;;9.60;8.50;;;7.80;1.00;;;;;;5055323;28;20224;-77
2022/12/20 06:54:42;;;;;;;10.90;9.10;;;7.90;1.00;;;;;;5072671;28;20189;-78
2022/12/20 06:57:08;;;;;;;13.50;9.00;;;7.90;1.00;;;;;;5055144;28;20527;-75
2022/12/20 06:59:34;;;;;;;10.90;7.97;;;7.90;1.00;;;;;;5055304;28;20178;-75
2022/12/20 07:02:00;;;;;;;14.07;9.43;;;7.90;1.00;;;;;;5073319;28;20178;-75
2022/12/20 07:04:26;;;;;;;12.90;9.70;;;7.90;1.00;;;;;;5072564;28;20430;-76
2022/12/20 07:06:51;;;;;;;11.73;8.80;;;7.90;1.00;;;;;;5073165;28;20431;-75
2022/12/20 07:09:17;;;;;;;11.20;8.30;;;7.90;1.00;;;;;;5054937;28;20425;-70
2022/12/20 07:11:43;;;;;;;12.20;9.53;;;7.90;1.00;;;;;;5073017;28;20206;-75
2022/12/20 07:14:08;;;;;;;13.40;9.63;;;8.00;1.00;;;;;;5054917;28;20240;-70
2022/12/20 07:16:35;;;;;;;10.13;7.53;;;8.00;1.00;;;;;;5054659;28;20192;-70
2022/12/20 07:19:01;;;;;;;10.60;9.03;;;8.00;1.00;;;;;;5073145;28;20416;-70
2022/12/20 07:21:27;;;;;;;10.20;8.80;;;8.00;1.00;;;;;;5055314;28;20843;-71
2022/12/20 07:23:54;;;;;;;9.30;8.40;;;8.00;1.00;;;;;;5073013;28;20269;-70
2022/12/20 07:26:20;;;;;;;8.37;7.10;;;8.00;1.00;;;;;;5072309;28;20194;-75
2022/12/20 07:28:46;;;;;;;18.63;9.50;;;8.00;1.00;;;;;;5072975;28;20904;-70
2022/12/20 07:31:12;;;;;;;11.60;9.17;;;8.00;1.00;;;;;;5055053;28;20452;-74
2022/12/20 07:33:38;;;;;;;9.43;7.70;;;8.00;1.00;;;;;;5072826;28;20166;-70
2022/12/20 07:36:10;;;;;;;12.00;8.90;;;8.00;1.00;;;;;;5072353;28;20650;-70
2022/12/20 07:38:36;;;;;;;12.63;8.70;;;8.00;1.00;;;;;;5075491;28;20403;-70
2022/12/20 07:41:13;;;;;;;15.27;9.93;;;8.00;1.00;;;;;;5076637;28;20777;-74
2022/12/20 07:43:39;;;;;;;10.50;9.43;;;8.00;1.00;;;;;;5058469;28;20498;-74
2022/12/20 07:46:07;;;;;;;10.30;8.87;;;7.90;1.00;;;;;;5075890;28;20404;-69
2022/12/20 07:48:34;;;;;;;9.70;7.93;;;7.90;1.00;;;;;;5058459;28;20435;-69
2022/12/20 07:51:05;;;;;;;11.33;8.20;;;7.90;1.00;;;;;;5076354;28;20602;-75
2022/12/20 07:53:33;;;;;;;8.50;7.23;;;8.00;1.00;;;;;;5076158;28;20731;-69
2022/12/20 07:56:01;;;;;;;12.00;9.23;;;8.00;1.00;;;;;;5075473;28;20499;-73
2022/12/20 07:58:29;;;;;;;12.23;9.30;;;8.00;1.00;;;;;;5076363;28;20916;-74
2022/12/20 08:00:56;;;;;;;9.80;7.90;;;8.00;1.00;;;;;;5058334;28;20470;-69
2022/12/20 08:03:30;;;;;;;10.13;8.93;;;8.10;1.00;;;;;;5076371;28;20805;-69
2022/12/20 08:05:59;;;;;;;11.97;8.90;;;8.10;1.00;;;;;;5075341;28;20426;-75
2022/12/20 08:08:25;;;;;;;14.10;10.40;;;8.20;1.00;;;;;;5058407;28;20442;-69
2022/12/20 08:10:51;;;;;;;14.13;10.30;;;8.20;1.00;;;;;;5076199;28;20455;-69
2022/12/20 08:13:17;;;;;;;11.40;9.60;;;8.20;1.00;;;;;;5076251;28;20849;-75
2022/12/20 08:15:43;;;;;;;13.43;10.10;;;8.20;1.00;;;;;;5075416;28;20462;-75
2022/12/20 08:18:09;;;;;;;14.40;9.70;;;8.30;1.00;;;;;;5076021;28;20409;-69
2022/12/20 08:20:34;;;;;;;21.00;11.77;;;8.30;1.00;;;;;;5076080;28;20170;-74
2022/12/20 08:23:03;;;;;;;20.50;11.97;;;8.30;1.00;;;;;;5075990;28;20167;-74
2022/12/20 08:25:29;;;;;;;14.90;10.87;;;8.40;1.00;;;;;;5057497;28;20228;-69
2022/12/20 08:27:54;;;;;;;14.13;11.50;;;8.40;1.00;;;;;;5075760;28;20807;-75
2022/12/20 08:30:20;;;;;;;12.67;10.70;;;8.40;1.00;;;;;;5075772;28;20959;-69
2022/12/20 08:32:46;;;;;;;11.70;9.63;;;8.50;1.00;;;;;;5057951;28;20166;-69
2022/12/20 08:35:12;;;;;;;16.97;10.90;;;8.50;1.00;;;;;;5075069;28;20194;-70
2022/12/20 08:37:38;;;;;;;14.47;11.30;;;8.50;1.00;;;;;;5057783;28;20711;-69
2022/12/20 08:40:04;;;;;;;12.40;10.53;;;8.60;1.00;;;;;;5075436;28;20566;-69
2022/12/20 08:42:30;;;;;;;14.63;11.00;;;8.60;1.00;;;;;;5075378;28;20181;-69
2022/12/20 08:44:56;;;;;;;13.00;9.53;;;8.60;1.00;;;;;;5074920;28;20416;-75
2022/12/20 08:47:21;;;;;;;15.80;9.80;;;8.60;1.00;;;;;;5057707;28;20562;-74
2022/12/20 08:49:47;;;;;;;14.77;10.63;;;8.60;1.00;;;;;;5074853;28;20166;-74
2022/12/20 08:52:13;;;;;;;10.67;9.27;;;8.70;1.00;;;;;;5072996;28;20213;-74
2022/12/20 08:54:38;;;;;;;19.20;11.17;;;8.70;1.00;;;;;;5074514;28;20241;-74
2022/12/20 08:57:04;;;;;;;13.60;9.63;;;8.70;1.00;;;;;;5075415;28;20258;-75
2022/12/20 08:59:30;;;;;;;13.53;10.37;;;8.70;1.00;;;;;;5075314;28;20178;-70
2022/12/20 09:01:55;;;;;;;13.27;9.17;;;8.70;1.00;;;;;;5075203;28;20176;-73
2022/12/20 09:04:21;;;;;;;11.33;9.17;;;8.70;1.00;;;;;;5074397;28;20191;-74
2022/12/20 09:06:47;;;;;;;11.10;8.83;;;8.70;1.00;;;;;;5075000;28;20190;-75
2022/12/20 09:09:12;;;;;;;9.47;8.00;;;8.70;1.00;;;;;;5057072;28;20212;-70
2022/12/20 09:11:38;;;;;;;12.43;9.07;;;8.70;1.00;;;;;;5074999;28;20285;-74
2022/12/20 09:14:04;;;;;;;11.20;8.20;;;8.80;1.00;;;;;;5074708;28;20665;-75
2022/12/20 09:16:31;;;;;;;15.27;9.57;;;8.80;1.00;;;;;;5056493;28;20170;-69
2022/12/20 09:18:59;;;;;;;8.57;7.67;;;8.80;1.00;;;;;;5074825;28;20496;-69
2022/12/20 09:21:25;;;;;;;10.50;8.30;;;8.80;1.00;;;;;;5075015;28;20405;-75
2022/12/20 09:23:52;;;;;;;11.03;9.13;;;8.80;1.00;;;;;;5074682;28;20933;-74
2022/12/20 09:26:20;;;;;;;11.80;8.90;;;8.90;1.00;;;;;;5073924;28;20412;-74
2022/12/20 09:28:46;;;;;;;12.57;7.70;;;8.90;1.00;;;;;;5074726;28;20427;-75
2022/12/20 09:31:17;;;;;;;9.30;7.90;;;8.90;1.00;;;;;;5074477;28;20452;-75
2022/12/20 09:33:43;;;;;;;11.93;8.97;;;8.90;1.00;;;;;;5074451;28;20392;-74
2022/12/20 09:36:14;;;;;;;12.23;9.90;;;8.90;1.00;;;;;;5073823;28;20588;-74
2022/12/20 09:38:40;;;;;;;14.30;8.50;;;9.00;1.00;;;;;;5074284;28;20451;-70
2022/12/20 09:41:14;;;;;;;10.67;8.37;;;9.10;1.00;;;;;;5074411;28;20788;-70
2022/12/20 09:43:40;;;;;;;11.53;8.27;;;9.10;1.00;;;;;;5056608;28;20254;-75
2022/12/20 09:46:10;;;;;;;8.80;7.83;;;9.10;1.00;;;;;;5073600;28;20933;-70
2022/12/20 09:48:37;;;;;;;9.00;6.63;;;9.20;1.00;;;;;;5074128;28;20411;-74
2022/12/20 09:51:09;;;;;;;13.53;8.07;;;9.20;1.00;;;;;;5074004;28;20452;-74
2022/12/20 09:53:56;;;;;;;8.90;7.10;;;9.20;1.00;;;;;;5074117;28;20491;-75
2022/12/20 09:56:43;;;;;;;9.77;7.57;;;9.20;1.00;;;;;;5073210;28;20939;-73
2022/12/20 09:59:14;;;;;;;9.77;7.03;;;9.20;1.00;;;;;;5056104;28;20907;-74
2022/12/20 10:01:45;;;;;;;10.47;8.27;;;9.20;1.00;;;;;;5073372;28;20395;-74
2022/12/20 10:04:28;;;;;;;7.07;6.40;;;9.20;1.00;;;;;;5073779;28;20474;-75
2022/12/20 10:07:03;;;;;;;10.73;7.50;;;9.30;1.00;;;;;;5073836;28;20941;-70
2022/12/20 10:09:29;;;;;;;11.03;7.53;;;9.30;1.00;;;;;;5073944;28;20405;-70
2022/12/20 10:12:26;;;;;;;8.43;6.87;;;9.20;1.00;;;;;;5073773;28;20440;-75
2022/12/20 10:15:14;;;;;;;7.57;6.83;;;9.30;1.00;;;;;;5072991;28;20542;-70
2022/12/20 10:18:22;;;;;;;7.47;6.57;;;9.30;1.00;;;;;;5073853;28;20411;-74
2022/12/20 10:20:57;;;;;;;7.00;6.30;;;9.40;1.00;;;;;;5039948;28;20416;-70
2022/12/20 10:23:31;;;;;;;7.57;6.77;;;9.40;1.00;;;;;;5073633;28;20413;-75
2022/12/20 10:25:57;;;;;;;10.33;8.80;;;9.40;1.00;;;;;;5073003;28;20869;-74
2022/12/20 10:28:28;;;;;;;10.83;7.70;;;9.40;1.00;;;;;;5073572;28;20477;-70
2022/12/20 10:30:57;;;;;;;8.97;7.67;;;9.40;1.00;;;;;;5073471;28;20537;-70
2022/12/20 10:33:24;;;;;;;9.90;7.50;;;9.30;1.00;;;;;;5055755;28;20901;-75
2022/12/20 10:35:51;;;;;;;8.70;7.60;;;9.40;1.00;;;;;;5072800;28;20924;-74
2022/12/20 10:38:17;;;;;;;8.97;8.07;;;9.40;1.00;;;;;;5073458;28;20408;-75
2022/12/20 10:40:45;;;;;;;9.57;7.70;;;9.40;1.00;;;;;;5073466;28;20402;-70
2022/12/20 10:43:19;;;;;;;9.60;7.17;;;9.40;1.00;;;;;;5073134;28;20400;-76
2022/12/20 10:45:57;;;;;;;10.00;8.23;;;9.40;1.00;;;;;;5072661;28;20832;-69
2022/12/20 10:48:33;;;;;;;9.87;7.50;;;9.30;1.00;;;;;;5073222;28;20480;-70
2022/12/20 10:51:21;;;;;;;8.60;7.87;;;9.30;1.00;;;;;;5073174;28;20522;-70
2022/12/20 10:54:01;;;;;;;8.10;7.30;;;9.30;1.00;;;;;;5073443;28;20422;-76
2022/12/20 10:56:32;;;;;;;8.03;7.23;;;9.20;1.00;;;;;;5054874;28;20410;-76
2022/12/20 10:59:02;;;;;;;9.87;8.97;;;9.30;1.00;;;;;;5073292;28;20920;-75
2022/12/20 11:01:35;;;;;;;9.83;7.80;;;9.30;1.00;;;;;;5055405;28;20397;-75
2022/12/20 11:04:06;;;;;;;18.03;7.70;;;9.30;1.00;;;;;;5055057;28;20470;-75
2022/12/20 11:06:42;;;;;;;11.57;7.90;;;9.20;1.00;;;;;;5054550;28;20460;-76
2022/12/20 11:09:30;;;;;;;9.57;8.07;;;9.30;1.00;;;;;;5055310;28;20417;-70
2022/12/20 11:12:11;;;;;;;11.23;6.77;;;9.30;1.00;;;;;;5074882;28;20429;-70
2022/12/20 11:14:37;;;;;;;8.70;7.90;;;9.20;1.00;;;;;;5076521;28;20986;-70
2022/12/20 11:17:36;;;;;;;8.70;7.90;;;9.30;1.00;;;;;;5077251;28;20393;-70
2022/12/20 11:20:08;;;;;;;9.70;7.90;;;9.20;1.00;;;;;;5077248;28;20531;-75
2022/12/20 11:22:49;;;;;;;9.17;8.07;;;9.30;1.00;;;;;;5077000;28;20488;-69
2022/12/20 11:25:35;;;;;;;8.33;7.40;;;9.30;1.00;;;;;;5076059;28;20425;-75
2022/12/20 11:28:14;;;;;;;14.10;7.60;;;9.30;1.00;;;;;;5077304;28;20432;-70
2022/12/20 11:31:06;;;;;;;12.07;7.47;;;9.30;1.00;;;;;;5076907;28;20459;-74
2022/12/20 11:33:51;;;;;;;9.33;7.87;;;9.40;1.00;;;;;;5076741;28;20392;-69
2022/12/20 11:36:34;;;;;;;8.73;7.83;;;9.40;1.00;;;;;;5076028;28;20420;-76
2022/12/20 11:39:26;;;;;;;13.87;8.90;;;9.40;1.00;;;;;;5076778;28;20384;-75
2022/12/20 11:41:58;;;;;;;11.43;9.07;;;9.50;1.00;;;;;;5076719;28;20407;-69
2022/12/20 11:45:05;;;;;;;18.10;9.73;;;9.50;1.00;;;;;;5076089;28;20415;-75
2022/12/20 11:48:05;;;;;;;12.00;7.83;;;9.50;1.00;;;;;;5044942;28;20947;-69
2022/12/20 11:50:45;;;;;;;17.40;9.37;;;9.50;1.00;;;;;;5038015;28;20949;-69
2022/12/20 11:53:44;;;;;;;14.37;9.70;;;9.40;1.00;;;;;;5076250;28;20405;-69
2022/12/20 11:56:17;;;;;;;13.20;7.70;;;9.40;1.00;;;;;;5057828;28;20807;-74
2022/12/20 11:59:04;;;;;;;11.90;8.40;;;9.40;1.00;;;;;;5076309;28;20400;-68
2022/12/20 12:01:51;;;;;;;8.20;7.23;;;9.40;1.00;;;;;;5076000;28;20503;-74
2022/12/20 12:04:31;;;;;;;9.57;7.60;;;9.40;1.00;;;;;;5075591;28;20444;-75
2022/12/20 12:07:13;;;;;;;10.03;8.40;;;9.40;1.00;;;;;;5076193;28;20484;-75
2022/12/20 12:10:01;;;;;;;9.60;8.03;;;9.40;1.00;;;;;;5076223;28;20389;-74
2022/12/20 12:12:44;;;;;;;9.83;7.73;;;9.30;1.00;;;;;;5076263;28;20393;-69
2022/12/20 12:15:30;;;;;;;10.67;8.60;;;9.30;1.00;;;;;;5075130;28;20446;-75
2022/12/20 12:18:05;;;;;;;7.80;7.10;;;9.40;1.00;;;;;;5076132;28;20780;-75
2022/12/20 12:21:04;;;;;;;11.30;8.43;;;9.40;1.00;;;;;;5076036;28;20393;-69
2022/12/20 12:23:52;;;;;;;10.43;7.30;;;9.40;1.00;;;;;;5075022;28;20377;-75
2022/12/20 12:26:28;;;;;;;9.47;7.03;;;9.40;1.00;;;;;;5074907;28;20424;-70
2022/12/20 12:29:09;;;;;;;13.17;8.50;;;9.40;1.00;;;;;;5075950;28;20430;-69
2022/12/20 12:31:35;;;;;;;12.43;8.40;;;9.40;1.00;;;;;;5075660;28;20444;-74
2022/12/20 12:34:20;;;;;;;11.23;7.60;;;9.40;1.00;;;;;;5075583;28;20428;-73
2022/12/20 12:36:46;;;;;;;11.50;7.70;;;9.40;1.00;;;;;;5074837;28;20410;-70
2022/12/20 12:39:30;;;;;;;9.83;7.33;;;9.50;1.00;;;;;;5075625;28;20454;-74
2022/12/20 12:42:14;;;;;;;12.37;8.13;;;9.60;1.00;;;;;;5075571;28;20188;-75
2022/12/20 12:44:48;;;;;;;9.57;7.80;;;9.50;1.00;;;;;;5074645;28;20424;-74
2022/12/20 12:47:26;;;;;;;8.60;7.30;;;9.50;1.00;;;;;;5075386;28;20396;-69
2022/12/20 12:49:54;;;;;;;10.73;8.70;;;9.60;1.00;;;;;;5075231;28;20479;-74
2022/12/20 12:52:42;;;;;;;10.03;8.70;;;9.60;1.00;;;;;;5057284;28;20480;-69
2022/12/20 12:55:38;;;;;;;13.63;8.87;;;9.60;1.00;;;;;;5074325;28;20419;-74
2022/12/20 12:58:24;;;;;;;9.50;7.60;;;9.60;1.00;;;;;;5075020;28;20393;-74
2022/12/20 13:00:56;;;;;;;10.67;7.13;;;9.60;1.00;;;;;;5057211;28;20500;-70
2022/12/20 13:03:48;;;;;;;9.47;8.47;;;9.60;1.00;;;;;;5075113;28;20409;-69
2022/12/20 13:06:27;;;;;;;7.70;6.70;;;9.60;1.00;;;;;;5073938;28;20503;-74
2022/12/20 13:08:55;;;;;;;12.13;7.90;;;9.60;1.00;;;;;;5075130;28;20892;-75
2022/12/20 13:11:48;;;;;;;8.20;7.40;;;9.70;1.00;;;;;;5074796;28;20462;-69
2022/12/20 13:14:17;;;;;;;13.00;8.10;;;9.70;1.00;;;;;;5070370;28;20453;-75
2022/12/20 13:16:44;;;;;;;9.73;7.73;;;9.70;1.00;;;;;;5074690;28;20913;-69
2022/12/20 13:19:34;;;;;;;12.10;8.47;;;9.70;1.00;;;;;;5074980;28;20402;-75
2022/12/20 13:22:12;;;;;;;10.70;7.67;;;9.70;1.00;;;;;;5074200;28;20817;-69